createdAt,value
2023-04-09T00:01:33.357Z,80.00
2023-04-09T00:03:59.914Z,78.10
2023-04-09T00:06:27.207Z,85.50
2023-04-09T00:08:53.826Z,84.10
2023-04-09T00:11:21.659Z,91.60
2023-04-09T00:13:48.497Z,95.37
2023-04-09T00:16:15.183Z,89.43
2023-04-09T00:18:41.861Z,91.60
2023-04-09T00:21:08.696Z,88.40
2023-04-09T00:23:35.876Z,90.77
2023-04-09T00:26:02.401Z,90.47
2023-04-09T00:28:28.907Z,89.23
2023-04-09T00:30:55.374Z,94.70
2023-04-09T00:33:21.810Z,92.97
2023-04-09T00:35:48.310Z,93.90
2023-04-09T00:38:14.842Z,96.80
2023-04-09T00:40:41.460Z,95.37
2023-04-09T00:43:08.117Z,93.53
2023-04-09T00:45:35.363Z,96.40
2023-04-09T00:48:02.148Z,88.10
2023-04-09T00:50:28.709Z,93.60
2023-04-09T00:52:55.664Z,94.13
2023-04-09T00:55:22.482Z,91.33
2023-04-09T00:57:49.336Z,91.87
2023-04-09T01:00:16.051Z,93.40
2023-04-09T01:02:43.567Z,99.23
2023-04-09T01:05:10.717Z,100.50
2023-04-09T01:07:54.742Z,98.70
2023-04-09T01:10:30.575Z,101.10
2023-04-09T01:13:23.437Z,95.10
2023-04-09T01:15:56.044Z,96.80
2023-04-09T01:18:23.334Z,98.70
2023-04-09T01:20:55.589Z,99.87
2023-04-09T01:23:45.461Z,104.47
2023-04-09T01:26:31.525Z,102.77
2023-04-09T01:28:59.326Z,105.50
2023-04-09T01:31:31.195Z,105.73
2023-04-09T01:33:59.109Z,110.07
2023-04-09T01:36:26.476Z,113.70
2023-04-09T01:38:54.411Z,109.23
2023-04-09T01:41:22.983Z,109.30
2023-04-09T01:43:49.928Z,106.93
2023-04-09T01:46:17.775Z,105.77
2023-04-09T01:48:44.889Z,109.20
2023-04-09T01:51:14.059Z,104.53
2023-04-09T01:53:41.697Z,104.77
2023-04-09T01:56:08.748Z,102.43
2023-04-09T01:58:36.062Z,107.23
2023-04-09T02:01:07.313Z,105.43
2023-04-09T02:03:35.597Z,106.30
2023-04-09T02:06:09.303Z,110.00
2023-04-09T02:08:36.775Z,106.10
2023-04-09T02:11:04.924Z,107.00
2023-04-09T02:13:32.338Z,109.77
2023-04-09T02:16:00.145Z,112.30
2023-04-09T02:18:28.618Z,110.73
2023-04-09T02:20:56.115Z,111.37
2023-04-09T02:23:22.679Z,106.70
2023-04-09T02:25:49.742Z,107.23
2023-04-09T02:28:16.435Z,109.50
2023-04-09T02:30:42.916Z,111.10
2023-04-09T02:33:09.354Z,111.93
2023-04-09T02:35:35.955Z,108.73
2023-04-09T02:38:02.696Z,108.97
2023-04-09T02:40:29.256Z,115.07
2023-04-09T02:42:55.837Z,102.87
2023-04-09T02:45:22.733Z,106.00
2023-04-09T02:47:49.328Z,111.13
2023-04-09T02:50:16.824Z,103.17
2023-04-09T02:52:48.749Z,101.40
2023-04-09T02:55:15.518Z,96.07
2023-04-09T02:57:42.098Z,92.87
2023-04-09T03:00:09.011Z,88.53
2023-04-09T03:02:35.717Z,91.90
2023-04-09T03:05:02.862Z,77.23
2023-04-09T03:07:30.679Z,70.90
2023-04-09T03:09:57.376Z,74.50
2023-04-09T03:12:24.021Z,69.07
2023-04-09T03:14:50.556Z,61.60
2023-04-09T03:17:17.128Z,59.83
2023-04-09T03:19:43.900Z,69.33
2023-04-09T03:22:10.661Z,72.20
2023-04-09T03:24:37.442Z,71.30
2023-04-09T03:27:05.824Z,74.93
2023-04-09T03:29:33.571Z,78.70
2023-04-09T03:32:00.269Z,84.47
2023-04-09T03:34:26.732Z,83.70
2023-04-09T03:36:56.008Z,84.73
2023-04-09T03:39:25.960Z,81.70
2023-04-09T03:41:53.060Z,80.93
2023-04-09T03:44:19.757Z,94.80
2023-04-09T03:47:04.555Z,83.10
2023-04-09T03:49:31.120Z,89.07
2023-04-09T03:52:09.097Z,82.80
2023-04-09T03:54:39.354Z,83.00
2023-04-09T03:57:12.257Z,88.33
2023-04-09T03:59:41.374Z,88.40
2023-04-09T04:02:08.775Z,97.63
2023-04-09T04:04:39.703Z,90.70
2023-04-09T04:07:09.450Z,95.43
2023-04-09T04:09:40.651Z,93.37
2023-04-09T04:12:11.222Z,97.80
2023-04-09T04:14:51.292Z,84.13
2023-04-09T04:17:24.443Z,83.83
2023-04-09T04:19:52.102Z,83.57
2023-04-09T04:22:18.673Z,86.43
2023-04-09T04:24:48.322Z,89.77
2023-04-09T04:27:19.237Z,91.90
2023-04-09T04:29:45.781Z,92.43
2023-04-09T04:32:22.719Z,98.90
2023-04-09T04:34:50.706Z,103.43
2023-04-09T04:37:25.855Z,102.00
2023-04-09T04:39:56.263Z,108.53
2023-04-09T04:42:23.214Z,107.40
2023-04-09T04:44:50.015Z,102.73
2023-04-09T04:47:51.714Z,109.07
2023-04-09T04:50:18.337Z,109.47
2023-04-09T04:52:57.338Z,110.87
2023-04-09T04:55:27.965Z,103.80
2023-04-09T04:57:54.719Z,110.47
2023-04-09T05:00:25.200Z,116.30
2023-04-09T05:02:52.144Z,153.83
2023-04-09T05:05:25.452Z,138.37
2023-04-09T05:07:54.822Z,139.13
2023-04-09T05:10:22.026Z,152.60
2023-04-09T05:12:49.118Z,161.97
2023-04-09T05:15:24.918Z,159.70
2023-04-09T05:17:51.502Z,162.03
2023-04-09T05:20:18.703Z,143.77
2023-04-09T05:22:52.410Z,148.97
2023-04-09T05:25:24.990Z,143.63
2023-04-09T05:27:51.767Z,124.33
2023-04-09T05:30:18.501Z,97.20
2023-04-09T05:32:49.680Z,106.57
2023-04-09T05:35:16.880Z,89.80
2023-04-09T05:37:44.638Z,119.37
2023-04-09T05:40:12.144Z,117.17
2023-04-09T05:42:40.506Z,129.27
2023-04-09T05:45:13.165Z,92.60
2023-04-09T05:47:47.478Z,106.40
2023-04-09T05:50:18.707Z,71.47
2023-04-09T05:52:45.187Z,85.97
2023-04-09T05:55:13.523Z,115.33
2023-04-09T05:57:45.552Z,116.60
2023-04-09T06:00:13.368Z,91.87
2023-04-09T06:02:47.561Z,81.07
2023-04-09T06:05:14.290Z,74.23
2023-04-09T06:07:40.972Z,82.27
2023-04-09T06:10:08.031Z,87.53
2023-04-09T06:12:35.477Z,77.67
2023-04-09T06:15:04.364Z,93.10
2023-04-09T06:17:31.079Z,63.83
2023-04-09T06:19:57.607Z,56.47
2023-04-09T06:22:24.376Z,55.27
2023-04-09T06:24:51.371Z,64.50
2023-04-09T06:27:19.057Z,65.70
2023-04-09T06:29:45.951Z,51.67
2023-04-09T06:32:12.665Z,51.10
2023-04-09T06:34:39.190Z,43.23
2023-04-09T06:37:05.858Z,42.93
2023-04-09T06:39:33.243Z,46.87
2023-04-09T06:41:59.905Z,35.63
2023-04-09T06:44:48.975Z,35.40
2023-04-09T06:47:15.596Z,39.40
2023-04-09T06:49:42.014Z,39.07
2023-04-09T06:52:08.525Z,30.83
2023-04-09T06:54:35.843Z,36.37
2023-04-09T06:57:02.544Z,36.63
2023-04-09T06:59:29.188Z,32.83
2023-04-09T07:01:55.927Z,34.60
2023-04-09T07:04:22.832Z,31.13
2023-04-09T07:06:49.360Z,32.83
2023-04-09T07:09:16.384Z,30.90
2023-04-09T07:11:42.921Z,32.23
2023-04-09T07:14:09.553Z,28.80
2023-04-09T07:16:36.309Z,28.00
2023-04-09T07:19:03.163Z,26.00
2023-04-09T07:21:29.857Z,25.90
2023-04-09T07:23:56.464Z,31.90
2023-04-09T07:26:23.207Z,34.23
2023-04-09T07:28:49.928Z,30.30
2023-04-09T07:31:16.480Z,31.20
2023-04-09T07:33:43.013Z,31.30
2023-04-09T07:36:09.957Z,31.00
2023-04-09T07:38:36.711Z,29.97
2023-04-09T07:41:03.372Z,32.03
2023-04-09T07:43:30.899Z,26.10
2023-04-09T07:45:57.510Z,24.20
2023-04-09T07:48:24.126Z,29.80
2023-04-09T07:50:51.512Z,22.60
2023-04-09T07:53:18.067Z,28.77
2023-04-09T07:55:44.669Z,28.33
2023-04-09T07:58:11.859Z,23.30
2023-04-09T08:00:38.506Z,27.20
2023-04-09T08:03:05.547Z,27.60
2023-04-09T08:05:32.601Z,31.00
2023-04-09T08:07:59.169Z,25.70
2023-04-09T08:10:25.867Z,24.53
2023-04-09T08:12:52.518Z,28.40
2023-04-09T08:15:19.179Z,24.07
2023-04-09T08:17:45.766Z,20.83
2023-04-09T08:20:12.652Z,23.67
2023-04-09T08:22:41.242Z,20.60
2023-04-09T08:25:08.144Z,16.97
2023-04-09T08:27:36.292Z,19.47
2023-04-09T08:30:03.910Z,17.97
2023-04-09T08:32:30.641Z,13.33
2023-04-09T08:34:57.314Z,15.17
2023-04-09T08:37:23.943Z,18.13
2023-04-09T08:39:50.928Z,12.60
2023-04-09T08:42:18.881Z,12.63
2023-04-09T08:44:46.070Z,14.27
2023-04-09T08:47:13.094Z,13.30
2023-04-09T08:49:41.659Z,15.03
2023-04-09T08:52:08.246Z,12.40
2023-04-09T08:54:35.543Z,14.10
2023-04-09T08:57:04.742Z,14.90
2023-04-09T08:59:31.600Z,11.73
2023-04-09T09:02:11.559Z,13.63
2023-04-09T09:04:48.615Z,14.07
2023-04-09T09:07:16.175Z,15.20
2023-04-09T09:09:56.469Z,14.47
2023-04-09T09:12:31.389Z,11.40
2023-04-09T09:14:58.230Z,14.03
2023-04-09T09:17:24.876Z,8.67
2023-04-09T09:19:51.410Z,14.47
2023-04-09T09:22:18.026Z,9.67
2023-04-09T09:24:51.760Z,12.90
2023-04-09T09:27:32.313Z,7.80
2023-04-09T09:29:59.149Z,10.60
2023-04-09T09:32:26.029Z,11.20
2023-04-09T09:35:03.616Z,9.67
2023-04-09T09:37:30.783Z,10.87
2023-04-09T09:39:58.204Z,7.13
2023-04-09T09:42:24.880Z,13.33
2023-04-09T09:44:52.759Z,6.07
2023-04-09T09:47:22.456Z,10.00
2023-04-09T09:49:50.526Z,10.03
2023-04-09T09:52:20.639Z,7.70
2023-04-09T09:54:48.898Z,8.10
2023-04-09T09:57:16.387Z,4.20
2023-04-09T10:00:01.921Z,7.70
2023-04-09T10:02:40.509Z,10.00
2023-04-09T10:05:08.012Z,7.47
2023-04-09T10:07:34.872Z,5.50
2023-04-09T10:10:02.616Z,6.00
2023-04-09T10:12:29.547Z,8.20
2023-04-09T10:14:56.461Z,8.03
2023-04-09T10:17:23.127Z,7.57
2023-04-09T10:19:55.279Z,7.70
2023-04-09T10:22:23.635Z,6.90
2023-04-09T10:24:51.320Z,6.20
2023-04-09T10:27:18.288Z,8.43
2023-04-09T10:29:46.801Z,8.57
2023-04-09T10:32:17.569Z,10.10
2023-04-09T10:34:45.200Z,9.57
2023-04-09T10:37:15.939Z,8.53
2023-04-09T10:39:47.281Z,8.97
2023-04-09T10:42:34.270Z,9.00
2023-04-09T10:45:05.025Z,6.50
2023-04-09T10:47:33.148Z,8.77
2023-04-09T10:50:13.927Z,11.90
2023-04-09T10:52:41.571Z,10.83
2023-04-09T10:55:08.355Z,9.47
2023-04-09T10:57:35.339Z,9.50
2023-04-09T11:00:02.157Z,10.67
2023-04-09T11:02:31.980Z,8.57
2023-04-09T11:05:01.592Z,9.47
2023-04-09T11:07:30.550Z,8.77
2023-04-09T11:09:57.390Z,8.87
2023-04-09T11:12:23.869Z,9.63
2023-04-09T11:14:50.592Z,11.30
2023-04-09T11:17:18.238Z,10.17
2023-04-09T11:19:45.039Z,11.27
2023-04-09T11:22:11.527Z,10.90
2023-04-09T11:24:41.939Z,10.30
2023-04-09T11:27:08.629Z,9.57
2023-04-09T11:29:35.928Z,8.20
2023-04-09T11:32:02.615Z,9.83
2023-04-09T11:34:29.142Z,11.00
2023-04-09T11:36:56.923Z,9.37
2023-04-09T11:39:23.705Z,8.80
2023-04-09T11:41:50.445Z,10.30
2023-04-09T11:44:17.043Z,8.83
2023-04-09T11:46:43.915Z,10.43
2023-04-09T11:49:11.109Z,11.10
2023-04-09T11:51:37.674Z,7.20
2023-04-09T11:54:07.809Z,8.47
2023-04-09T11:56:35.780Z,9.00
2023-04-09T11:59:03.321Z,10.30
2023-04-09T12:01:33.393Z,8.73
2023-04-09T12:04:01.146Z,9.80
2023-04-09T12:06:28.786Z,8.37
2023-04-09T12:08:58.851Z,8.40
2023-04-09T12:11:29.703Z,7.73
2023-04-09T12:14:00.037Z,8.70
2023-04-09T12:16:26.659Z,8.50
2023-04-09T12:18:55.752Z,6.37
2023-04-09T12:21:27.571Z,7.50
2023-04-09T12:23:54.109Z,7.07
2023-04-09T12:26:21.013Z,7.50
2023-04-09T12:28:47.771Z,7.30
2023-04-09T12:31:14.295Z,7.90
2023-04-09T12:33:41.080Z,8.10
2023-04-09T12:36:08.103Z,7.87
2023-04-09T12:38:34.642Z,7.97
2023-04-09T12:41:01.336Z,9.37
2023-04-09T12:43:28.206Z,8.57
2023-04-09T12:45:54.838Z,8.23
2023-04-09T12:48:21.524Z,4.67
2023-04-09T12:50:48.052Z,7.73
2023-04-09T12:53:14.633Z,6.80
2023-04-09T12:55:42.850Z,7.80
2023-04-09T12:58:09.750Z,7.40
2023-04-09T13:00:36.298Z,7.17
2023-04-09T13:03:02.983Z,6.83
2023-04-09T13:05:32.518Z,7.13
2023-04-09T13:07:59.342Z,7.00
2023-04-09T13:10:26.187Z,6.47
2023-04-09T13:12:53.082Z,5.17
2023-04-09T13:15:19.693Z,7.67
2023-04-09T13:17:46.649Z,7.43
2023-04-09T13:20:13.457Z,8.30
2023-04-09T13:22:40.238Z,5.00
2023-04-09T13:25:06.867Z,7.40
2023-04-09T13:27:33.479Z,9.50
2023-04-09T13:30:00.099Z,8.43
2023-04-09T13:32:27.156Z,7.50
2023-04-09T13:34:55.211Z,9.43
2023-04-09T13:37:21.829Z,7.30
2023-04-09T13:39:49.591Z,9.03
2023-04-09T13:42:17.366Z,7.40
2023-04-09T13:44:46.945Z,7.40
2023-04-09T13:47:14.402Z,7.00
2023-04-09T13:49:41.240Z,5.67
2023-04-09T13:52:08.160Z,8.20
2023-04-09T13:54:35.497Z,7.67
2023-04-09T13:57:05.051Z,6.70
2023-04-09T13:59:32.182Z,7.80
2023-04-09T14:01:59.092Z,8.70
2023-04-09T14:04:26.052Z,6.17
2023-04-09T14:06:52.631Z,9.13
2023-04-09T14:09:19.224Z,7.83
2023-04-09T14:11:45.821Z,7.27
2023-04-09T14:14:12.356Z,8.20
2023-04-09T14:16:38.986Z,7.67
2023-04-09T14:19:06.411Z,8.40
2023-04-09T14:21:33.693Z,8.27
2023-04-09T14:24:00.512Z,7.23
2023-04-09T14:26:27.520Z,7.13
2023-04-09T14:28:54.431Z,7.83
2023-04-09T14:31:21.908Z,8.33
2023-04-09T14:33:48.823Z,6.70
2023-04-09T14:36:16.103Z,7.60
2023-04-09T14:38:42.737Z,7.20
2023-04-09T14:41:09.299Z,6.83
2023-04-09T14:43:35.874Z,7.50
2023-04-09T14:46:04.061Z,8.00
2023-04-09T14:48:30.999Z,7.83
2023-04-09T14:50:58.122Z,7.80
2023-04-09T14:53:25.301Z,6.00
2023-04-09T14:55:52.087Z,7.90
2023-04-09T14:58:18.627Z,6.03
2023-04-09T15:00:45.245Z,6.87
2023-04-09T15:03:12.170Z,7.33
2023-04-09T15:05:39.082Z,7.13
2023-04-09T15:08:05.611Z,7.80
2023-04-09T15:10:32.169Z,6.73
2023-04-09T15:12:58.777Z,7.23
2023-04-09T15:15:25.628Z,4.77
2023-04-09T15:17:52.346Z,7.60
2023-04-09T15:20:19.236Z,8.33
2023-04-09T15:22:45.840Z,7.40
2023-04-09T15:25:14.247Z,5.93
2023-04-09T15:27:40.996Z,5.53
2023-04-09T15:30:07.937Z,7.03
2023-04-09T15:32:34.520Z,5.40
2023-04-09T15:35:01.339Z,6.53
2023-04-09T15:37:27.889Z,6.83
2023-04-09T15:39:54.499Z,7.70
2023-04-09T15:42:22.847Z,5.90
2023-04-09T15:44:49.970Z,4.93
2023-04-09T15:47:16.532Z,6.90
2023-04-09T15:49:44.409Z,8.17
2023-04-09T15:52:11.214Z,6.47
2023-04-09T15:54:38.134Z,5.63
2023-04-09T15:57:04.859Z,5.20
2023-04-09T15:59:31.813Z,6.60
2023-04-09T16:01:58.403Z,6.03
2023-04-09T16:04:25.926Z,4.90
2023-04-09T16:06:54.053Z,8.17
2023-04-09T16:09:20.672Z,4.77
2023-04-09T16:11:47.227Z,6.50
2023-04-09T16:14:13.954Z,6.90
2023-04-09T16:16:40.776Z,4.10
2023-04-09T16:19:07.454Z,4.93
2023-04-09T16:21:34.040Z,4.40
2023-04-09T16:24:00.963Z,3.80
2023-04-09T16:26:27.502Z,4.30
2023-04-09T16:28:54.366Z,4.60
2023-04-09T16:31:21.430Z,6.73
2023-04-09T16:33:48.437Z,4.97
2023-04-09T16:36:15.425Z,4.23
2023-04-09T16:38:41.936Z,7.30
2023-04-09T16:41:08.534Z,7.03
2023-04-09T16:43:36.142Z,4.37
2023-04-09T16:46:02.792Z,6.00
2023-04-09T16:48:29.414Z,5.53
2023-04-09T16:50:55.963Z,6.90
2023-04-09T16:53:22.480Z,7.03
2023-04-09T16:55:49.076Z,5.50
2023-04-09T16:58:16.206Z,6.40
2023-04-09T17:00:44.715Z,5.77
2023-04-09T17:03:13.459Z,5.90
2023-04-09T17:05:40.402Z,7.10
2023-04-09T17:08:07.059Z,6.60
2023-04-09T17:10:33.607Z,5.70
2023-04-09T17:13:00.552Z,5.93
2023-04-09T17:15:27.327Z,5.77
2023-04-09T17:17:54.090Z,7.37
2023-04-09T17:20:22.607Z,7.63
2023-04-09T17:22:49.217Z,7.37
2023-04-09T17:25:16.293Z,6.50
2023-04-09T17:27:44.001Z,6.93
2023-04-09T17:30:12.151Z,5.60
2023-04-09T17:32:43.680Z,7.10
2023-04-09T17:35:10.564Z,7.27
2023-04-09T17:37:38.076Z,4.90
2023-04-09T17:40:04.990Z,7.27
2023-04-09T17:42:31.551Z,8.20
2023-04-09T17:44:58.273Z,8.37
2023-04-09T17:47:24.841Z,7.60
2023-04-09T17:49:52.435Z,7.73
2023-04-09T17:52:20.341Z,6.80
2023-04-09T17:54:47.201Z,7.47
2023-04-09T17:57:13.923Z,7.80
2023-04-09T17:59:40.984Z,5.17
2023-04-09T18:02:07.934Z,8.20
2023-04-09T18:04:35.862Z,7.70
2023-04-09T18:07:04.015Z,8.40
2023-04-09T18:09:31.072Z,8.90
2023-04-09T18:11:57.890Z,7.23
2023-04-09T18:14:24.785Z,7.73
2023-04-09T18:16:51.793Z,8.10
2023-04-09T18:19:18.537Z,9.40
2023-04-09T18:21:45.196Z,9.63
2023-04-09T18:24:11.822Z,9.30
2023-04-09T18:26:38.306Z,8.03
2023-04-09T18:29:04.953Z,8.60
2023-04-09T18:31:31.957Z,9.40
2023-04-09T18:33:58.481Z,8.13
2023-04-09T18:36:25.057Z,7.53
2023-04-09T18:38:51.959Z,9.20
2023-04-09T18:41:22.612Z,8.20
2023-04-09T18:43:49.570Z,8.63
2023-04-09T18:46:16.447Z,8.70
2023-04-09T18:48:44.050Z,8.20
2023-04-09T18:51:11.267Z,6.27
2023-04-09T18:53:38.108Z,8.33
2023-04-09T18:56:05.048Z,6.20
2023-04-09T18:58:33.644Z,8.97
2023-04-09T19:01:00.786Z,7.63
2023-04-09T19:03:30.076Z,9.00
2023-04-09T19:05:59.835Z,7.63
2023-04-09T19:08:27.301Z,9.70
2023-04-09T19:10:55.740Z,9.20
2023-04-09T19:13:22.356Z,7.80
2023-04-09T19:15:48.892Z,7.20
2023-04-09T19:18:16.927Z,8.37
2023-04-09T19:20:43.479Z,8.03
2023-04-09T19:23:10.196Z,7.90
2023-04-09T19:25:36.900Z,8.37
2023-04-09T19:28:03.444Z,8.33
2023-04-09T19:30:29.951Z,8.70
2023-04-09T19:32:56.487Z,6.93
2023-04-09T19:35:23.165Z,6.57
2023-04-09T19:37:49.760Z,7.60
2023-04-09T19:40:18.008Z,6.00
2023-04-09T19:42:44.614Z,4.77
2023-04-09T19:45:11.647Z,7.10
2023-04-09T19:47:38.333Z,7.80
2023-04-09T19:50:05.213Z,6.17
2023-04-09T19:52:32.054Z,7.40
2023-04-09T19:54:58.716Z,8.60
2023-04-09T19:57:26.523Z,8.73
2023-04-09T19:59:54.288Z,7.30
2023-04-09T20:02:21.147Z,5.77
2023-04-09T20:04:47.839Z,6.60
2023-04-09T20:07:15.638Z,7.13
2023-04-09T20:09:42.621Z,7.80
2023-04-09T20:12:09.544Z,9.60
2023-04-09T20:14:38.036Z,9.20
2023-04-09T20:17:05.353Z,7.50
2023-04-09T20:19:32.456Z,9.00
2023-04-09T20:22:02.149Z,9.63
2023-04-09T20:24:28.774Z,9.57
2023-04-09T20:26:55.856Z,7.50
2023-04-09T20:29:22.766Z,8.73
2023-04-09T20:31:49.369Z,8.90
2023-04-09T20:34:16.352Z,10.17
2023-04-09T20:36:44.022Z,8.73
2023-04-09T20:39:11.771Z,8.40
2023-04-09T20:41:38.885Z,8.20
2023-04-09T20:44:06.089Z,10.00
2023-04-09T20:46:32.726Z,9.70
2023-04-09T20:48:59.584Z,9.47
2023-04-09T20:51:26.151Z,10.77
2023-04-09T20:53:52.770Z,9.50
2023-04-09T20:56:19.292Z,9.03
2023-04-09T20:58:45.866Z,10.53
2023-04-09T21:01:13.047Z,9.80
2023-04-09T21:03:40.152Z,8.97
2023-04-09T21:06:08.131Z,10.33
2023-04-09T21:08:34.715Z,9.17
2023-04-09T21:11:02.156Z,9.40
2023-04-09T21:13:29.173Z,8.80
2023-04-09T21:15:56.838Z,8.60
2023-04-09T21:18:23.977Z,9.97
2023-04-09T21:20:50.783Z,9.67
2023-04-09T21:23:17.734Z,9.60
2023-04-09T21:25:44.303Z,9.80
2023-04-09T21:28:11.569Z,9.27
2023-04-09T21:30:38.236Z,11.10
2023-04-09T21:33:06.095Z,8.83
2023-04-09T21:35:32.751Z,12.13
2023-04-09T21:37:59.640Z,9.80
2023-04-09T21:40:26.132Z,9.73
2023-04-09T21:42:52.674Z,12.50
2023-04-09T21:45:19.238Z,9.23
2023-04-09T21:47:46.269Z,12.33
2023-04-09T21:50:13.579Z,12.07
2023-04-09T21:52:40.132Z,11.43
2023-04-09T21:55:07.104Z,12.03
2023-04-09T21:57:33.781Z,13.43
2023-04-09T22:00:00.335Z,19.17
2023-04-09T22:02:27.594Z,16.63
2023-04-09T22:04:54.242Z,21.70
2023-04-09T22:07:20.972Z,20.17
2023-04-09T22:09:47.528Z,23.50
2023-04-09T22:12:14.349Z,22.80
2023-04-09T22:14:41.994Z,24.40
2023-04-09T22:17:08.743Z,26.67
2023-04-09T22:19:35.604Z,53.67
2023-04-09T22:22:02.178Z,65.47
2023-04-09T22:24:30.232Z,45.20
2023-04-09T22:26:58.834Z,63.40
2023-04-09T22:29:26.466Z,57.43
2023-04-09T22:31:53.219Z,38.67
2023-04-09T22:34:21.934Z,32.33
2023-04-09T22:36:49.013Z,47.30
2023-04-09T22:39:15.794Z,22.30
2023-04-09T22:41:42.377Z,26.20
2023-04-09T22:44:09.760Z,11.27
2023-04-09T22:46:36.641Z,12.23
2023-04-09T22:49:05.480Z,12.90
2023-04-09T22:51:34.861Z,13.17
2023-04-09T22:54:02.207Z,12.27
2023-04-09T22:56:30.121Z,15.10
2023-04-09T22:58:56.788Z,13.40
2023-04-09T23:01:23.506Z,12.63
2023-04-09T23:03:50.423Z,12.80
2023-04-09T23:06:17.123Z,15.03
2023-04-09T23:08:43.759Z,13.80
2023-04-09T23:11:11.086Z,12.80
2023-04-09T23:13:38.176Z,14.97
2023-04-09T23:16:08.536Z,14.90
2023-04-09T23:18:35.413Z,14.77
2023-04-09T23:21:09.412Z,15.73
2023-04-09T23:23:36.513Z,14.30
2023-04-09T23:26:03.111Z,14.37
2023-04-09T23:28:29.570Z,14.23
2023-04-09T23:30:56.849Z,13.67
2023-04-09T23:33:23.543Z,13.93
2023-04-09T23:35:50.376Z,12.50
2023-04-09T23:38:16.905Z,14.80
2023-04-09T23:40:43.535Z,12.77
2023-04-09T23:43:10.074Z,13.60
2023-04-09T23:45:37.016Z,13.77
2023-04-09T23:48:03.774Z,12.33
2023-04-09T23:50:30.613Z,13.90
2023-04-09T23:53:03.425Z,13.20
2023-04-09T23:55:30.326Z,12.10
2023-04-09T23:57:57.071Z,12.73
